x

Capers Nearshore (cap 2) (41029) Weather Station

11:08am - Sun 30th Apr 2017 All times are EDT. -4 hours from GMT.

  • Wind
    11mph, 16mph gusts
  • Sea Temp 75°f
  • Air Temp 77°f
  • Sea Pressure 1022.8mb
  • Capers Nearshore (cap 2)
  • Capers Nearshore (cap 2)

More Historic Weather Station data

Upgrade to MSW Pro to gain access to the past 30 days of data for over 8000 Wavebouys and Weather Stations around the globe.

Join Pro

Comparision Forecast

View Surf forecast
   
Sun 04/30 11:08am 11 16 mph 1022.8mb 75f 77f
10:08am 11 16 mph 1022.4mb 74f 77f
9:08am 11 16 mph 1022.4mb 74f 77f
8:08am 11 18 mph 1022mb 74f 76f
7:08am 13 18 mph 1021.3mb 74f 76f
6:08am 11 18 mph 1021.3mb 75f 76f
5:08am 11 13 mph 1021.4mb 75f 76f
4:08am 11 16 mph 1021.5mb 75f 76f
3:08am 9 11 mph 1021.8mb 76f 76f
2:08am 9 13 mph 1022.2mb 76f 77f
1:08am 11 16 mph 1022.3mb 76f 76f
12:08am 11 16 mph 1022.4mb 76f 76f
Sat 04/29 11:08pm 13 20 mph 1022.2mb 76f 76f
10:08pm 9 13 mph 1022.4mb 76f 76f
9:08pm 11 16 mph 1022mb 76f 76f
8:08pm 11 13 mph 1021.9mb 76f 76f
7:08pm 11 16 mph 1022.1mb 76f 77f
6:08pm 11 16 mph 1022.2mb 76f 78f
5:08pm 11 16 mph 1022.3mb 76f 78f
4:08pm 11 13 mph 1022.7mb 77f 78f
3:08pm 11 13 mph 1023.3mb 77f 78f
2:08pm 9 13 mph 1023.3mb 76f 77f
1:08pm 7 11 mph 1023.3mb 76f 77f
12:08pm 7 11 mph 1023.6mb 75f 76f
11:08am 7 9 mph 1023.8mb 74f 76f
10:08am 2 7 mph 1024mb 74f 75f
9:08am 4 9 mph 1023.6mb 74f 75f
8:08am 4 7 mph 1023.3mb 74f 74f
7:08am 7 9 mph 1022.5mb 74f 73f
6:08am 11 16 mph 1021.6mb 73f 74f
5:08am 13 18 mph 1020.7mb 73f 74f
4:08am 16 20 mph 1020.4mb 73f 74f
3:08am 16 22 mph 1020.2mb 73f 74f
2:08am 16 22 mph 1020.3mb 74f 74f
1:08am 16 20 mph 1020.7mb 75f 75f
12:08am 16 20 mph 1020.6mb 75f 74f
Fri 04/28 11:08pm 13 18 mph 1020.6mb 75f 75f
10:08pm 11 16 mph 1020.5mb 76f 75f
9:08pm 9 13 mph 1019.9mb 76f 75f
8:08pm 7 11 mph 1019.7mb 76f 75f
7:08pm 7 11 mph 1019.5mb 76f 75f
6:08pm 7 11 mph 1019.3mb 76f 76f
5:08pm 7 9 mph 1019.3mb 76f 76f
4:08pm 7 9 mph 1019.3mb 76f 76f
3:08pm 7 9 mph 1019.6mb 76f 76f
2:08pm 9 11 mph 1019.6mb 75f 75f
1:08pm 7 9 mph 1019.6mb 75f 74f
12:08pm 7 9 mph 1019.6mb 74f 75f
11:08am 9 11 mph 1019.3mb 74f 74f
10:08am 7 11 mph 1018.6mb 73f 74f
9:08am 7 9 mph 1018.5mb 73f 74f
8:08am 7 11 mph 1017.7mb 73f 73f
7:08am 9 13 mph 1017mb 73f 73f
6:08am 11 18 mph 1016mb 73f 73f
5:08am 7 11 mph 1015.9mb 73f 73f
4:08am 9 11 mph 1015.6mb 73f 73f
3:08am 9 13 mph 1015.2mb 73f 74f
2:08am 11 16 mph 1014.7mb 73f 74f
1:08am 13 18 mph 1014.3mb 73f 74f
12:08am 11 18 mph 1014.3mb 73f 74f
Thu 04/27 11:08pm 16 22 mph 1014mb 73f 75f
10:08pm 18 25 mph 1013.1mb 74f 75f
9:08pm 18 25 mph 1011.9mb 73f 75f
8:08pm 18 22 mph 1011.7mb 74f 75f
6:08pm 11 18 mph 1012.9mb 74f 76f
5:08pm 11 18 mph 1012.9mb 75f 77f
4:08pm 9 13 mph 1013mb 74f 77f
3:08pm 9 11 mph 1013.4mb 75f 77f
2:08pm 9 13 mph 1013.5mb 74f 76f
1:08pm 7 9 mph 1013.8mb 73f 75f
12:08pm 9 11 mph 1013.9mb 73f 75f
11:08am 11 16 mph 1014.3mb 73f 74f
10:08am 11 18 mph 1014.1mb 72f 74f
9:08am 13 18 mph 1014mb 72f 74f
8:08am 13 18 mph 1013.1mb 72f 74f
7:08am 11 18 mph 1012.1mb 72f 74f
6:08am 13 20 mph 1011.9mb 72f 74f
5:08am 16 20 mph 1011.8mb 72f 74f
4:08am 13 18 mph 1011.7mb 72f 74f
3:08am 9 13 mph 1011.7mb 72f 74f
2:08am 11 18 mph 1011.9mb 72f 75f
1:08am 16 20 mph 1011.9mb 72f 76f
12:08am 18 25 mph 1011.8mb 72f 76f
Wed 04/26 11:08pm 18 22 mph 1011.8mb 72f 76f
10:08pm 18 22 mph 1011.7mb 73f 76f
9:08pm 16 22 mph 1011.1mb 73f 76f
8:08pm 16 22 mph 1010.6mb 72f 76f
7:08pm 13 18 mph 1010.6mb 73f 76f
6:08pm 13 18 mph 1010.5mb 72f 77f
5:08pm 13 20 mph 1010.2mb 73f 77f